createdAt,value
2022-08-07T00:01:43.249Z,96775.31
2022-08-07T00:06:33.419Z,96776.41
2022-08-07T00:11:39.942Z,96770.97
2022-08-07T00:17:02.829Z,96761.97
2022-08-07T00:22:37.927Z,96771.28
2022-08-07T00:27:53.534Z,96766.97
2022-08-07T00:33:01.250Z,96766.16
2022-08-07T00:38:06.299Z,96761.50
2022-08-07T00:43:59.359Z,96759.56
2022-08-07T00:48:35.092Z,96753.97
2022-08-07T00:53:54.938Z,96765.22
2022-08-07T00:59:00.309Z,96762.81
2022-08-07T01:04:08.365Z,96760.41
2022-08-07T01:09:11.980Z,96758.03
2022-08-07T01:14:37.152Z,96754.94
2022-08-07T01:19:42.043Z,96757.00
2022-08-07T01:25:00.009Z,96746.75
2022-08-07T01:30:05.749Z,96744.66
2022-08-07T01:35:09.298Z,96744.22
2022-08-07T01:40:21.484Z,96745.16
2022-08-07T01:45:37.268Z,96746.47
2022-08-07T01:50:59.036Z,96739.75
2022-08-07T01:56:18.354Z,96732.69
2022-08-07T02:02:00.098Z,96731.09
2022-08-07T02:06:55.991Z,96730.91
2022-08-07T02:12:05.254Z,96729.66
2022-08-07T02:17:24.753Z,96733.19
2022-08-07T02:22:33.337Z,96728.84
2022-08-07T02:27:41.209Z,96725.31
2022-08-07T02:33:03.686Z,96731.56
2022-08-07T02:38:16.240Z,96737.34
2022-08-07T02:43:20.855Z,96729.03
2022-08-07T02:48:26.010Z,96731.59
2022-08-07T02:53:39.107Z,96738.84
2022-08-07T02:58:48.258Z,96742.22
2022-08-07T03:03:53.610Z,96740.13
2022-08-07T03:09:06.453Z,96736.31
2022-08-07T03:14:10.717Z,96745.59
2022-08-07T03:19:15.592Z,96753.78
2022-08-07T03:24:27.398Z,96752.69
2022-08-07T03:29:49.605Z,96754.91
2022-08-07T03:35:17.781Z,96759.06
2022-08-07T03:40:31.044Z,96761.75
2022-08-07T03:45:47.822Z,96764.66
2022-08-07T03:50:58.124Z,96768.00
2022-08-07T03:56:11.039Z,96763.47
2022-08-07T04:01:23.415Z,96764.28
2022-08-07T04:06:37.886Z,96769.19
2022-08-07T04:12:25.549Z,96769.75
2022-08-07T04:17:19.855Z,96770.63
2022-08-07T04:22:29.641Z,96771.59
2022-08-07T04:27:43.920Z,96773.00
2022-08-07T04:32:58.048Z,96786.31
2022-08-07T04:38:07.702Z,96795.13
2022-08-07T04:43:17.960Z,96789.94
2022-08-07T04:48:32.864Z,96799.72
2022-08-07T04:54:05.702Z,96793.88
2022-08-07T05:00:11.605Z,96789.09
2022-08-07T05:05:51.960Z,96801.09
2022-08-07T05:11:19.422Z,96803.53
2022-08-07T05:16:31.670Z,96802.47
2022-08-07T05:21:59.836Z,96807.75
2022-08-07T05:27:03.206Z,96796.84
2022-08-07T05:32:09.887Z,96806.75
2022-08-07T05:37:16.594Z,96807.72
2022-08-07T05:42:40.296Z,96804.03
2022-08-07T05:48:01.489Z,96802.22
2022-08-07T05:54:13.381Z,96805.31
2022-08-07T05:58:52.368Z,96810.56
2022-08-07T06:04:01.580Z,96810.25
2022-08-07T06:09:15.120Z,96797.16
2022-08-07T06:14:28.817Z,96814.88
2022-08-07T06:19:52.192Z,96804.75
2022-08-07T06:25:01.069Z,96810.69
2022-08-07T06:30:07.086Z,96809.59
2022-08-07T06:35:39.068Z,96811.59
2022-08-07T06:40:53.422Z,96813.28
2022-08-07T06:46:00.872Z,96813.41
2022-08-07T06:51:09.629Z,96814.28
2022-08-07T06:56:17.675Z,96812.50
2022-08-07T07:01:23.904Z,96824.47
2022-08-07T07:06:39.395Z,96831.88
2022-08-07T07:12:07.749Z,96837.84
2022-08-07T07:17:50.533Z,96831.34
2022-08-07T07:24:05.970Z,96836.22
2022-08-07T07:28:48.389Z,96837.09
2022-08-07T07:34:04.992Z,96829.13
2022-08-07T07:39:12.013Z,96834.97
2022-08-07T07:44:25.789Z,96821.81
2022-08-07T07:50:34.582Z,96819.28
2022-08-07T07:54:57.197Z,96819.03
2022-08-07T08:00:05.864Z,96811.16
2022-08-07T08:05:17.615Z,96811.41
2022-08-07T08:10:37.622Z,96812.09
2022-08-07T08:15:58.651Z,96815.66
2022-08-07T08:21:03.612Z,96807.66
2022-08-07T08:26:09.951Z,96818.06
2022-08-07T08:31:30.407Z,96811.59
2022-08-07T08:36:46.327Z,96806.38
2022-08-07T08:42:00.245Z,96802.44
2022-08-07T08:47:26.021Z,96811.84
2022-08-07T08:52:40.762Z,96794.38
2022-08-07T08:58:13.333Z,96804.16
2022-08-07T09:03:49.600Z,96798.91
2022-08-07T09:09:02.141Z,96800.41
2022-08-07T09:14:29.963Z,96801.94
2022-08-07T09:20:01.233Z,96795.84
2022-08-07T09:25:26.703Z,96795.22
2022-08-07T09:31:00.130Z,96795.88
2022-08-07T09:36:18.905Z,96796.56
2022-08-07T09:42:03.023Z,96797.47
2022-08-07T09:47:55.451Z,96796.25
2022-08-07T09:53:09.255Z,96803.03
2022-08-07T09:58:43.380Z,96806.13
2022-08-07T10:04:28.229Z,96804.94
2022-08-07T10:10:01.117Z,96801.81
2022-08-07T10:15:28.342Z,96810.94
2022-08-07T10:20:53.468Z,96805.31
2022-08-07T10:26:06.507Z,96802.88
2022-08-07T10:31:31.492Z,96796.22
2022-08-07T10:36:56.884Z,96798.34
2022-08-07T10:42:31.412Z,96798.72
2022-08-07T10:47:57.569Z,96797.50
2022-08-07T10:53:44.543Z,96798.41
2022-08-07T10:59:00.048Z,96793.19
2022-08-07T11:04:41.265Z,96803.78
2022-08-07T11:10:09.071Z,96791.59
2022-08-07T11:15:26.331Z,96796.66
2022-08-07T11:20:40.545Z,96805.00
2022-08-07T11:26:21.891Z,96809.34
2022-08-07T11:31:39.472Z,96808.03
2022-08-07T11:37:02.446Z,96810.00
2022-08-07T11:42:30.485Z,96802.75
2022-08-07T11:48:02.626Z,96799.91
2022-08-07T11:53:28.237Z,96799.13
2022-08-07T11:58:41.438Z,96794.50
2022-08-07T12:03:59.471Z,96799.03
2022-08-07T12:09:31.717Z,96791.88
2022-08-07T12:15:01.205Z,96788.75
2022-08-07T12:20:30.849Z,96787.09
2022-08-07T12:26:02.854Z,96781.69
2022-08-07T12:31:24.496Z,96779.03
2022-08-07T12:36:32.756Z,96777.44
2022-08-07T12:41:49.204Z,96769.34
2022-08-07T12:47:21.480Z,96759.88
2022-08-07T12:52:53.112Z,96754.81
2022-08-07T12:58:01.239Z,96751.25
2022-08-07T13:03:27.545Z,96753.47
2022-08-07T13:09:02.280Z,96759.59
2022-08-07T13:14:31.525Z,96749.34
2022-08-07T13:19:55.010Z,96764.22
2022-08-07T13:25:09.760Z,96751.81
2022-08-07T13:30:40.543Z,96748.78
2022-08-07T13:36:00.751Z,96738.94
2022-08-07T13:41:29.291Z,96732.13
2022-08-07T13:46:38.841Z,96743.47
2022-08-07T13:52:05.000Z,96740.78
2022-08-07T13:57:37.623Z,96743.97
2022-08-07T14:02:51.073Z,96748.00
2022-08-07T14:08:01.352Z,96743.66
2022-08-07T14:13:06.866Z,96741.19
2022-08-07T14:18:56.779Z,96742.50
2022-08-07T14:24:05.339Z,96730.25
2022-08-07T14:30:07.620Z,96727.63
2022-08-07T14:34:46.079Z,96725.56
2022-08-07T14:40:18.232Z,96722.00
2022-08-07T14:45:22.232Z,96725.47
2022-08-07T14:50:50.943Z,96724.91
2022-08-07T14:56:00.891Z,96733.06
2022-08-07T15:01:22.641Z,96741.94
2022-08-07T15:06:30.009Z,96744.72
2022-08-07T15:17:13.901Z,96742.81
2022-08-07T15:22:29.322Z,96751.84
2022-08-07T15:28:32.503Z,96741.56
2022-08-07T15:33:19.537Z,96746.81
2022-08-07T15:38:58.775Z,96753.53
2022-08-07T15:44:01.292Z,96753.09
2022-08-07T15:54:43.420Z,96768.09
2022-08-07T15:59:49.689Z,96768.03
2022-08-07T16:05:02.161Z,96767.69
2022-08-07T16:10:19.850Z,96777.59
2022-08-07T16:15:55.326Z,96778.16
2022-08-07T16:22:01.183Z,96776.78
2022-08-07T16:26:59.424Z,96774.59
2022-08-07T16:32:25.459Z,96767.94
2022-08-07T16:38:04.177Z,96775.75
2022-08-07T16:44:03.834Z,96776.81
2022-08-07T16:50:20.281Z,96780.31
2022-08-07T16:55:08.556Z,96782.44
2022-08-07T17:00:29.670Z,96792.59
2022-08-07T17:06:19.466Z,96806.59
2022-08-07T17:11:17.115Z,96796.34
2022-08-07T17:16:28.819Z,96806.00
2022-08-07T17:21:59.041Z,96805.09
2022-08-07T17:27:19.834Z,96811.66
2022-08-07T17:32:35.553Z,96810.69
2022-08-07T17:38:09.613Z,96809.22
2022-08-07T17:44:01.906Z,96823.09
2022-08-07T17:49:10.458Z,96822.50
2022-08-07T17:54:53.177Z,96824.63
2022-08-07T18:00:11.338Z,96820.94
2022-08-07T18:05:24.259Z,96834.50
2022-08-07T18:12:06.635Z,96835.47
2022-08-07T18:16:30.974Z,96837.75
2022-08-07T18:22:00.469Z,96840.31
2022-08-07T18:27:38.858Z,96839.84
2022-08-07T18:33:12.104Z,96843.06
2022-08-07T18:38:55.689Z,96856.56
2022-08-07T18:45:45.076Z,96844.63
2022-08-07T18:50:39.156Z,96848.97
2022-08-07T18:56:58.413Z,96844.47
2022-08-07T19:02:18.709Z,96850.13
2022-08-07T19:08:19.845Z,96847.88
2022-08-07T19:13:36.027Z,96852.28
2022-08-07T19:18:52.431Z,96848.13
2022-08-07T19:24:00.703Z,96851.84
2022-08-07T19:30:56.671Z,96850.91
2022-08-07T19:34:32.741Z,96858.94
2022-08-07T19:39:57.792Z,96862.19
2022-08-07T19:45:12.382Z,96851.44
2022-08-07T19:50:40.834Z,96848.25
2022-08-07T19:55:57.634Z,96852.41
2022-08-07T20:01:03.108Z,96856.59
2022-08-07T20:06:15.458Z,96860.00
2022-08-07T20:12:00.997Z,96867.72
2022-08-07T20:16:58.078Z,96864.84
2022-08-07T20:22:02.618Z,96870.94
2022-08-07T20:27:11.659Z,96859.38
2022-08-07T20:32:22.688Z,96853.25
2022-08-07T20:37:46.758Z,96856.31
2022-08-07T20:42:58.198Z,96862.47
2022-08-07T20:48:03.593Z,96869.06
2022-08-07T20:53:13.851Z,96858.59
2022-08-07T20:58:28.362Z,96867.72
2022-08-07T21:03:34.490Z,96862.44
2022-08-07T21:09:14.221Z,96860.03
2022-08-07T21:14:35.494Z,96845.84
2022-08-07T21:19:50.816Z,96856.78
2022-08-07T21:25:38.915Z,96844.72
2022-08-07T21:31:03.654Z,96851.66
2022-08-07T21:36:33.351Z,96844.75
2022-08-07T21:41:52.404Z,96841.88
2022-08-07T21:47:17.388Z,96841.25
2022-08-07T21:52:32.863Z,96837.53
2022-08-07T21:58:08.520Z,96840.09
2022-08-07T22:03:30.997Z,96844.78
2022-08-07T22:09:07.256Z,96848.00
2022-08-07T22:14:15.271Z,96845.28
2022-08-07T22:19:54.655Z,96848.00
2022-08-07T22:25:08.609Z,96849.78
2022-08-07T22:30:17.644Z,96852.03
2022-08-07T22:35:23.375Z,96845.28
2022-08-07T22:40:39.094Z,96846.06
2022-08-07T22:46:40.794Z,96851.22
2022-08-07T22:52:10.170Z,96858.44
2022-08-07T22:57:34.229Z,96860.84
2022-08-07T23:03:12.962Z,96859.56
2022-08-07T23:08:46.741Z,96863.41
2022-08-07T23:14:17.298Z,96860.84
2022-08-07T23:19:59.927Z,96863.91
2022-08-07T23:25:51.768Z,96861.53
2022-08-07T23:31:18.605Z,96869.06
2022-08-07T23:37:19.270Z,96856.22
2022-08-07T23:42:42.210Z,96855.28
2022-08-07T23:48:15.733Z,96858.00
2022-08-07T23:53:50.963Z,96858.16
